createdAt,value
2017-09-15T00:02:04.232Z,85.00
2017-09-15T00:04:31.824Z,84.50
2017-09-15T00:07:00.161Z,84.10
2017-09-15T00:09:28.738Z,84.10
2017-09-15T00:11:56.272Z,84.10
2017-09-15T00:14:23.782Z,84.40
2017-09-15T00:16:54.263Z,84.30
2017-09-15T00:19:21.760Z,84.30
2017-09-15T00:21:50.164Z,84.30
2017-09-15T00:24:18.874Z,84.10
2017-09-15T00:26:47.303Z,84.20
2017-09-15T00:29:15.195Z,83.70
2017-09-15T00:31:42.699Z,84.20
2017-09-15T00:34:10.691Z,83.30
2017-09-15T00:36:38.209Z,83.60
2017-09-15T00:39:05.738Z,84.40
2017-09-15T00:41:34.034Z,84.30
2017-09-15T00:44:02.388Z,84.50
2017-09-15T00:46:37.924Z,83.80
2017-09-15T00:49:05.435Z,84.50
2017-09-15T00:51:32.976Z,83.10
2017-09-15T00:54:00.911Z,84.00
2017-09-15T00:56:28.577Z,83.80
2017-09-15T00:58:56.797Z,84.30
2017-09-15T01:01:28.144Z,84.00
2017-09-15T01:03:56.159Z,84.00
2017-09-15T01:06:23.671Z,84.20
2017-09-15T01:08:52.707Z,84.40
2017-09-15T01:11:20.227Z,84.40
2017-09-15T01:13:47.727Z,84.40
2017-09-15T01:16:19.074Z,84.40
2017-09-15T01:18:47.711Z,85.10
2017-09-15T01:21:15.255Z,84.90
2017-09-15T01:23:42.770Z,84.90
2017-09-15T01:26:11.228Z,85.20
2017-09-15T01:28:38.802Z,85.20
2017-09-15T01:31:06.352Z,85.00
2017-09-15T01:33:33.899Z,85.30
2017-09-15T01:36:01.399Z,85.50
2017-09-15T01:38:28.935Z,85.70
2017-09-15T01:40:56.816Z,85.50
2017-09-15T01:43:25.290Z,85.00
2017-09-15T01:45:52.843Z,85.30
2017-09-15T01:48:20.712Z,85.40
2017-09-15T01:50:48.288Z,85.50
2017-09-15T01:53:15.843Z,85.60
2017-09-15T01:55:44.685Z,85.40
2017-09-15T01:58:12.355Z,85.40
2017-09-15T02:00:40.127Z,85.60
2017-09-15T02:03:07.674Z,85.30
2017-09-15T02:05:35.439Z,85.00
2017-09-15T02:08:03.139Z,85.30
2017-09-15T02:10:30.642Z,85.40
2017-09-15T02:12:58.187Z,85.60
2017-09-15T02:15:26.702Z,85.00
2017-09-15T02:17:54.240Z,85.00
2017-09-15T02:20:23.328Z,84.50
2017-09-15T02:22:50.866Z,84.40
2017-09-15T02:25:18.373Z,84.70
2017-09-15T02:27:47.711Z,85.00
2017-09-15T02:30:15.238Z,85.00
2017-09-15T02:32:43.043Z,85.20
2017-09-15T02:35:10.639Z,85.00
2017-09-15T02:37:38.147Z,85.10
2017-09-15T02:40:06.604Z,84.90
2017-09-15T02:42:34.437Z,85.50
2017-09-15T02:45:01.954Z,85.50
2017-09-15T02:47:29.484Z,85.40
2017-09-15T02:49:57.055Z,85.30
2017-09-15T02:52:26.406Z,85.60
2017-09-15T02:54:54.021Z,85.40
2017-09-15T02:57:21.552Z,85.60
2017-09-15T02:59:49.412Z,85.70
2017-09-15T03:02:16.911Z,85.80
2017-09-15T03:04:45.315Z,85.80
2017-09-15T03:07:12.871Z,86.30
2017-09-15T03:09:41.196Z,86.70
2017-09-15T03:12:09.388Z,86.70
2017-09-15T03:14:37.160Z,86.70
2017-09-15T03:17:04.709Z,86.70
2017-09-15T03:19:32.206Z,87.00
2017-09-15T03:22:00.491Z,87.00
2017-09-15T03:24:28.949Z,87.00
2017-09-15T03:26:56.492Z,87.30
2017-09-15T03:29:24.087Z,86.80
2017-09-15T03:31:52.313Z,87.40
2017-09-15T03:34:20.379Z,87.20
2017-09-15T03:36:48.075Z,86.70
2017-09-15T03:39:15.667Z,86.60
2017-09-15T03:41:43.236Z,87.20
2017-09-15T03:44:10.740Z,87.30
2017-09-15T03:46:38.391Z,87.30
2017-09-15T03:49:09.626Z,87.80
2017-09-15T03:51:37.437Z,87.80
2017-09-15T03:54:05.402Z,88.70
2017-09-15T03:56:32.951Z,89.80
2017-09-15T03:59:00.443Z,90.10
2017-09-15T04:01:28.252Z,90.50
2017-09-15T04:03:59.563Z,90.50
2017-09-15T04:06:27.055Z,90.60
2017-09-15T04:08:54.612Z,90.80
2017-09-15T04:11:22.113Z,91.00
2017-09-15T04:13:50.306Z,91.20
2017-09-15T04:16:17.903Z,91.20
2017-09-15T04:18:46.323Z,91.20
2017-09-15T04:21:13.886Z,90.90
2017-09-15T04:23:41.493Z,90.60
2017-09-15T04:26:09.019Z,90.00
2017-09-15T04:28:36.587Z,89.70
2017-09-15T04:31:05.843Z,89.00
2017-09-15T04:33:33.438Z,88.80
2017-09-15T04:36:08.879Z,88.40
2017-09-15T04:38:37.155Z,88.00
2017-09-15T04:41:04.721Z,88.00
2017-09-15T04:43:33.102Z,86.90
2017-09-15T04:46:01.376Z,86.70
2017-09-15T04:48:28.947Z,86.70
2017-09-15T04:50:57.219Z,87.10
2017-09-15T04:53:25.070Z,87.10
2017-09-15T04:55:53.346Z,87.30
2017-09-15T04:58:20.884Z,87.20
2017-09-15T05:00:48.504Z,87.00
2017-09-15T05:03:15.998Z,87.10
2017-09-15T05:05:43.502Z,87.50
2017-09-15T05:08:11.031Z,87.00
2017-09-15T05:10:39.940Z,86.40
2017-09-15T05:13:07.497Z,86.40
2017-09-15T05:15:35.808Z,86.90
2017-09-15T05:18:04.127Z,86.90
2017-09-15T05:20:31.655Z,87.70
2017-09-15T05:22:59.294Z,87.60
2017-09-15T05:25:26.847Z,87.60
2017-09-15T05:27:55.221Z,87.20
2017-09-15T05:30:23.419Z,87.30
2017-09-15T05:32:51.004Z,87.00
2017-09-15T05:35:18.513Z,87.00
2017-09-15T05:37:46.070Z,87.50
2017-09-15T05:40:14.372Z,88.10
2017-09-15T05:42:42.779Z,87.30
2017-09-15T05:45:10.335Z,87.20
2017-09-15T05:47:37.897Z,87.00
2017-09-15T05:50:05.404Z,86.40
2017-09-15T05:52:32.919Z,86.00
2017-09-15T05:55:00.957Z,84.80
2017-09-15T05:57:28.465Z,84.80
2017-09-15T05:59:56.232Z,84.40
2017-09-15T06:02:23.737Z,84.30
2017-09-15T06:04:51.284Z,84.40
2017-09-15T06:07:24.222Z,84.70
2017-09-15T06:09:51.775Z,84.30
2017-09-15T06:12:19.276Z,83.70
2017-09-15T06:14:48.444Z,83.20
2017-09-15T06:17:16.023Z,83.20
2017-09-15T06:19:44.488Z,83.00
2017-09-15T06:22:13.475Z,82.20
2017-09-15T06:24:41.123Z,82.20
2017-09-15T06:27:08.691Z,82.10
2017-09-15T06:29:36.235Z,82.20
2017-09-15T06:32:03.739Z,81.80
2017-09-15T06:34:32.030Z,81.50
2017-09-15T06:36:59.553Z,81.90
2017-09-15T06:39:27.123Z,81.20
2017-09-15T06:41:54.695Z,81.30
2017-09-15T06:44:22.974Z,80.20
2017-09-15T06:46:50.503Z,80.20
2017-09-15T06:49:18.039Z,80.20
2017-09-15T06:51:48.864Z,79.50
2017-09-15T06:54:16.400Z,80.10
2017-09-15T06:56:43.955Z,79.70
2017-09-15T06:59:11.452Z,79.20
2017-09-15T07:01:39.470Z,79.30
2017-09-15T07:04:06.972Z,78.90
2017-09-15T07:06:34.571Z,78.30
2017-09-15T07:09:02.909Z,78.30
2017-09-15T07:11:30.435Z,78.70
2017-09-15T07:13:58.012Z,78.20
2017-09-15T07:16:25.558Z,76.80
2017-09-15T07:18:53.060Z,76.70
2017-09-15T07:21:20.593Z,76.80
2017-09-15T07:23:48.148Z,75.80
2017-09-15T07:26:16.419Z,76.20
2017-09-15T07:28:43.971Z,74.80
2017-09-15T07:31:11.514Z,73.60
2017-09-15T07:33:39.786Z,72.40
2017-09-15T07:36:07.343Z,72.40
2017-09-15T07:38:35.663Z,71.70
2017-09-15T07:41:03.187Z,71.00
2017-09-15T07:43:31.463Z,72.10
2017-09-15T07:45:59.023Z,72.10
2017-09-15T07:48:27.310Z,73.30
2017-09-15T07:50:54.998Z,73.30
2017-09-15T07:53:22.551Z,73.30
2017-09-15T07:55:50.051Z,74.00
2017-09-15T07:58:17.558Z,73.00
2017-09-15T08:00:45.819Z,73.40
2017-09-15T08:03:14.818Z,71.40
2017-09-15T08:05:42.367Z,71.30
2017-09-15T08:08:11.571Z,70.80
2017-09-15T08:10:39.086Z,70.70
2017-09-15T08:13:07.367Z,68.80
2017-09-15T08:15:34.870Z,68.30
2017-09-15T08:18:03.299Z,68.20
2017-09-15T08:20:30.819Z,68.90
2017-09-15T08:23:01.860Z,69.80
2017-09-15T08:25:29.367Z,69.80
2017-09-15T08:27:56.900Z,70.10
2017-09-15T08:30:24.403Z,69.90
2017-09-15T08:32:54.067Z,69.50
2017-09-15T08:35:21.568Z,69.40
2017-09-15T08:37:49.071Z,67.70
2017-09-15T08:40:20.817Z,66.50
2017-09-15T08:42:48.663Z,64.40
2017-09-15T08:45:16.963Z,65.10
2017-09-15T08:47:45.420Z,64.90
2017-09-15T08:50:12.976Z,65.40
2017-09-15T08:52:41.247Z,64.50
2017-09-15T08:55:13.239Z,64.10
2017-09-15T08:57:40.771Z,64.70
2017-09-15T09:00:09.088Z,64.30
2017-09-15T09:02:36.629Z,64.30
2017-09-15T09:05:04.341Z,64.00
2017-09-15T09:07:33.327Z,63.70
2017-09-15T09:10:00.833Z,63.70
2017-09-15T09:12:28.340Z,63.60
2017-09-15T09:14:55.980Z,63.10
2017-09-15T09:17:23.499Z,63.50
2017-09-15T09:19:51.747Z,62.90
2017-09-15T09:22:19.272Z,62.20
2017-09-15T09:24:50.392Z,60.60
2017-09-15T09:27:17.937Z,60.80
2017-09-15T09:29:47.137Z,57.40
2017-09-15T09:32:14.685Z,57.30
2017-09-15T09:34:42.237Z,57.00
2017-09-15T09:37:09.840Z,57.50
2017-09-15T09:39:37.343Z,56.20
2017-09-15T09:42:05.533Z,56.60
2017-09-15T09:44:33.408Z,55.50
2017-09-15T09:47:00.949Z,55.50
2017-09-15T09:49:28.928Z,56.50
2017-09-15T09:51:56.434Z,55.70
2017-09-15T09:54:23.983Z,55.80
2017-09-15T09:56:51.482Z,54.70
2017-09-15T09:59:19.503Z,54.60
2017-09-15T10:01:47.174Z,55.10
2017-09-15T10:04:14.924Z,53.40
2017-09-15T10:06:42.460Z,52.50
2017-09-15T10:09:10.807Z,53.80
2017-09-15T10:11:42.592Z,52.90
2017-09-15T10:14:10.875Z,52.20
2017-09-15T10:16:38.923Z,52.10
2017-09-15T10:19:08.143Z,52.40
2017-09-15T10:21:35.719Z,52.80
2017-09-15T10:24:04.731Z,51.70
2017-09-15T10:26:32.245Z,51.50
2017-09-15T10:29:00.990Z,51.10
2017-09-15T10:31:28.514Z,51.60
2017-09-15T10:33:56.080Z,51.30
2017-09-15T10:36:23.628Z,53.10
2017-09-15T10:38:52.671Z,54.10
2017-09-15T10:41:24.912Z,54.10
2017-09-15T10:43:52.679Z,54.40
2017-09-15T10:46:20.719Z,53.40
2017-09-15T10:48:48.272Z,53.10
2017-09-15T10:51:16.623Z,53.30
2017-09-15T10:53:44.171Z,53.30
2017-09-15T10:56:16.712Z,52.80
2017-09-15T10:58:49.890Z,53.20
2017-09-15T11:01:17.759Z,54.40
2017-09-15T11:03:45.987Z,54.40
2017-09-15T11:06:13.838Z,54.50
2017-09-15T11:08:41.377Z,54.50
2017-09-15T11:11:09.450Z,53.60
2017-09-15T11:13:37.007Z,53.00
2017-09-15T11:16:04.503Z,51.10
2017-09-15T11:18:32.952Z,50.40
2017-09-15T11:21:00.800Z,50.80
2017-09-15T11:23:28.315Z,50.90
2017-09-15T11:25:55.835Z,50.40
2017-09-15T11:28:27.907Z,51.50
2017-09-15T11:30:55.457Z,50.80
2017-09-15T11:33:23.016Z,51.20
2017-09-15T11:35:50.612Z,50.50
2017-09-15T11:38:18.115Z,51.00
2017-09-15T11:40:45.652Z,51.00
2017-09-15T11:43:13.990Z,48.00
2017-09-15T11:45:41.923Z,48.00
2017-09-15T11:48:09.475Z,47.70
2017-09-15T11:50:36.995Z,47.70
2017-09-15T11:53:05.233Z,47.30
2017-09-15T11:55:32.780Z,48.10
2017-09-15T11:58:01.043Z,48.80
2017-09-15T12:00:29.320Z,47.10
2017-09-15T12:02:56.863Z,47.60
2017-09-15T12:05:26.098Z,48.50
2017-09-15T12:07:53.655Z,48.50
2017-09-15T12:10:21.162Z,48.30
2017-09-15T12:12:48.677Z,49.60
2017-09-15T12:15:16.263Z,50.90
2017-09-15T12:17:43.797Z,50.10
2017-09-15T12:20:11.308Z,50.80
2017-09-15T12:22:39.579Z,49.90
2017-09-15T12:25:07.087Z,49.20
2017-09-15T12:27:34.605Z,50.30
2017-09-15T12:30:03.435Z,50.70
2017-09-15T12:32:30.951Z,50.70
2017-09-15T12:34:58.982Z,49.60
2017-09-15T12:37:26.530Z,49.50
2017-09-15T12:39:54.031Z,50.40
2017-09-15T12:42:22.523Z,49.20
2017-09-15T12:44:50.835Z,50.30
2017-09-15T12:47:18.335Z,50.20
2017-09-15T12:49:45.892Z,48.60
2017-09-15T12:52:13.892Z,48.20
2017-09-15T12:54:41.415Z,47.50
2017-09-15T12:57:09.768Z,46.40
2017-09-15T12:59:38.112Z,46.70
2017-09-15T13:02:05.636Z,46.70
2017-09-15T13:04:33.363Z,46.30
2017-09-15T13:07:02.608Z,46.50
2017-09-15T13:09:30.131Z,46.40
2017-09-15T13:11:57.667Z,46.40
2017-09-15T13:14:25.220Z,46.40
2017-09-15T13:16:52.835Z,46.20
2017-09-15T13:19:20.482Z,48.70
2017-09-15T13:21:48.020Z,49.80
2017-09-15T13:24:16.705Z,48.90
2017-09-15T13:26:44.231Z,49.20
2017-09-15T13:29:12.560Z,50.50
2017-09-15T13:31:40.169Z,50.50
2017-09-15T13:34:08.439Z,50.30
2017-09-15T13:36:36.739Z,50.30
2017-09-15T13:39:05.461Z,48.70
2017-09-15T13:41:33.002Z,48.60
2017-09-15T13:44:00.535Z,48.50
2017-09-15T13:46:29.761Z,49.80
2017-09-15T13:48:57.274Z,49.80
2017-09-15T13:51:24.835Z,48.70
2017-09-15T13:53:54.034Z,44.20
2017-09-15T13:56:22.316Z,44.10
2017-09-15T13:58:54.624Z,45.00
2017-09-15T14:01:22.128Z,44.90
2017-09-15T14:03:49.623Z,46.20
2017-09-15T14:06:17.142Z,47.00
2017-09-15T14:08:44.687Z,48.10
2017-09-15T14:11:12.348Z,47.70
2017-09-15T14:13:40.106Z,49.20
2017-09-15T14:16:09.552Z,49.50
2017-09-15T14:18:38.785Z,47.20
2017-09-15T14:21:06.319Z,47.10
2017-09-15T14:23:33.870Z,46.20
2017-09-15T14:26:02.154Z,45.50
2017-09-15T14:28:29.703Z,45.50
2017-09-15T14:30:57.931Z,45.80
2017-09-15T14:33:25.468Z,44.80
2017-09-15T14:35:53.008Z,46.00
2017-09-15T14:38:20.560Z,46.80
2017-09-15T14:40:48.065Z,45.70
2017-09-15T14:43:15.912Z,46.20
2017-09-15T14:45:43.434Z,46.10
2017-09-15T14:48:16.679Z,48.10
2017-09-15T14:50:44.221Z,48.00
2017-09-15T14:53:11.765Z,47.40
2017-09-15T14:55:39.334Z,47.90
2017-09-15T14:58:06.840Z,49.60
2017-09-15T15:00:34.383Z,49.70
2017-09-15T15:03:01.915Z,50.40
2017-09-15T15:05:29.414Z,49.70
2017-09-15T15:07:56.990Z,49.50
2017-09-15T15:10:26.233Z,48.50
2017-09-15T15:12:53.759Z,48.60
2017-09-15T15:15:26.674Z,50.60
2017-09-15T15:17:54.179Z,50.60
2017-09-15T15:20:21.686Z,49.70
2017-09-15T15:22:49.300Z,49.30
2017-09-15T15:25:17.427Z,50.60
2017-09-15T15:27:46.215Z,51.40
2017-09-15T15:30:16.987Z,51.40
2017-09-15T15:32:44.520Z,50.70
2017-09-15T15:35:12.060Z,50.50
2017-09-15T15:37:41.143Z,51.30
2017-09-15T15:40:08.671Z,51.20
2017-09-15T15:42:36.420Z,52.70
2017-09-15T15:45:03.951Z,52.80
2017-09-15T15:47:31.497Z,52.20
2017-09-15T15:50:00.564Z,52.70
2017-09-15T15:52:28.080Z,52.70
2017-09-15T15:54:55.611Z,55.10
2017-09-15T15:57:23.135Z,54.50
2017-09-15T15:59:50.678Z,54.10
2017-09-15T16:02:25.814Z,53.80
2017-09-15T16:04:53.343Z,52.90
2017-09-15T16:07:21.088Z,52.90
2017-09-15T16:09:48.601Z,54.80
2017-09-15T16:12:16.104Z,53.40
2017-09-15T16:14:45.032Z,54.50
2017-09-15T16:17:16.134Z,54.50
2017-09-15T16:19:43.700Z,54.90
2017-09-15T16:22:11.203Z,55.00
2017-09-15T16:24:39.199Z,56.80
2017-09-15T16:27:07.468Z,56.40
2017-09-15T16:29:35.780Z,57.50
2017-09-15T16:32:03.554Z,57.40
2017-09-15T16:34:31.055Z,57.00
2017-09-15T16:36:58.627Z,59.00
2017-09-15T16:39:32.597Z,57.10
2017-09-15T16:42:05.844Z,57.00
2017-09-15T16:44:38.897Z,57.40
2017-09-15T16:47:16.210Z,58.80
2017-09-15T16:49:43.276Z,59.40
2017-09-15T16:52:11.503Z,59.20
2017-09-15T16:54:39.059Z,60.60
2017-09-15T16:57:07.032Z,61.50
2017-09-15T16:59:34.579Z,61.80
2017-09-15T17:02:02.085Z,62.00
2017-09-15T17:04:31.203Z,62.00
2017-09-15T17:06:58.751Z,61.90
2017-09-15T17:09:26.259Z,62.00
2017-09-15T17:11:53.784Z,62.50
2017-09-15T17:14:21.322Z,63.30
2017-09-15T17:16:52.834Z,64.20
2017-09-15T18:01:58.899Z,73.60
2017-09-15T18:04:26.459Z,74.40
2017-09-15T18:06:55.719Z,75.00
2017-09-15T18:09:23.284Z,74.80
2017-09-15T18:11:51.259Z,74.70
2017-09-15T18:14:19.309Z,76.10
2017-09-15T18:16:48.765Z,78.30
2017-09-15T18:19:17.045Z,78.70
2017-09-15T18:21:44.583Z,78.70
2017-09-15T18:24:12.623Z,78.60
2017-09-15T18:26:40.207Z,78.10
2017-09-15T18:29:08.656Z,79.20
2017-09-15T18:31:36.931Z,80.30
2017-09-15T18:34:05.190Z,80.70
2017-09-15T18:36:32.814Z,81.40
2017-09-15T18:39:01.095Z,80.20
2017-09-15T18:41:32.373Z,80.00
2017-09-15T18:43:59.893Z,80.00
2017-09-15T18:46:27.488Z,81.00
2017-09-15T18:48:58.212Z,81.40
2017-09-15T18:51:25.711Z,82.20
2017-09-15T18:53:53.387Z,82.10
2017-09-15T18:56:22.459Z,80.50
2017-09-15T18:58:50.019Z,80.40
2017-09-15T19:01:18.327Z,80.50
2017-09-15T19:03:46.061Z,79.70
2017-09-15T19:06:13.643Z,79.20
2017-09-15T19:08:41.229Z,77.50
2017-09-15T19:11:08.820Z,77.10
2017-09-15T19:13:37.365Z,78.00
2017-09-15T19:16:04.872Z,80.30
2017-09-15T19:18:32.476Z,82.80
2017-09-15T19:21:00.124Z,84.70
2017-09-15T19:23:28.296Z,85.20
2017-09-15T19:25:56.751Z,86.00
2017-09-15T19:28:24.305Z,88.50
2017-09-15T19:30:52.345Z,88.70
2017-09-15T19:33:19.910Z,90.00
2017-09-15T19:35:47.606Z,89.00
2017-09-15T19:38:16.133Z,90.20
2017-09-15T19:40:44.399Z,90.70
2017-09-15T19:43:11.986Z,90.80
2017-09-15T19:45:39.843Z,89.30
2017-09-15T19:48:07.509Z,87.10
2017-09-15T19:50:35.327Z,86.20
2017-09-15T19:53:02.963Z,87.80
2017-09-15T19:55:30.681Z,89.00
2017-09-15T19:57:59.900Z,87.90
2017-09-15T20:00:27.452Z,87.90
2017-09-15T20:02:55.761Z,90.90
2017-09-15T20:05:23.496Z,90.90
2017-09-15T20:07:51.334Z,88.10
2017-09-15T20:10:19.999Z,89.10
2017-09-15T20:12:47.803Z,89.00
2017-09-15T20:15:16.870Z,91.10
2017-09-15T20:17:44.430Z,91.10
2017-09-15T20:20:16.294Z,90.80
2017-09-15T20:22:44.115Z,91.70
2017-09-15T20:25:11.768Z,92.00
2017-09-15T20:27:39.386Z,92.40
2017-09-15T20:30:07.290Z,91.70
2017-09-15T20:32:34.840Z,91.80
2017-09-15T20:35:04.034Z,91.40
2017-09-15T20:37:32.094Z,91.40
2017-09-15T20:39:59.667Z,91.70
2017-09-15T20:42:28.865Z,92.30
2017-09-15T20:44:56.376Z,92.30
2017-09-15T20:47:24.027Z,91.80
2017-09-15T20:49:52.545Z,92.10
2017-09-15T20:52:20.054Z,92.40
2017-09-15T20:54:47.699Z,92.70
2017-09-15T20:57:15.233Z,92.40
2017-09-15T20:59:43.626Z,93.00
2017-09-15T21:02:12.837Z,93.20
2017-09-15T21:04:40.422Z,93.20
2017-09-15T21:07:12.132Z,93.40
2017-09-15T21:09:40.455Z,93.60
2017-09-15T21:12:08.000Z,93.60
2017-09-15T21:14:35.551Z,93.70
2017-09-15T21:17:03.128Z,93.80
2017-09-15T21:19:31.620Z,93.80
2017-09-15T21:22:06.618Z,93.80
2017-09-15T21:24:34.172Z,93.90
2017-09-15T21:27:02.447Z,94.10
2017-09-15T21:29:29.975Z,94.10
2017-09-15T21:31:57.488Z,94.10
2017-09-15T21:34:25.048Z,94.20
2017-09-15T21:37:00.263Z,94.00
2017-09-15T21:39:28.628Z,93.40
2017-09-15T21:41:56.139Z,93.10
2017-09-15T21:44:23.697Z,93.20
2017-09-15T21:46:52.932Z,93.10
2017-09-15T21:49:20.454Z,93.10
2017-09-15T21:51:48.091Z,93.30
2017-09-15T21:54:15.650Z,93.20
2017-09-15T21:56:43.151Z,93.20
2017-09-15T21:59:11.358Z,92.80
2017-09-15T22:01:39.803Z,92.50
2017-09-15T22:04:13.343Z,92.30
2017-09-15T22:06:41.084Z,92.30
2017-09-15T22:09:08.592Z,91.80
2017-09-15T22:11:36.632Z,91.50
2017-09-15T22:14:04.890Z,92.10
2017-09-15T22:16:33.425Z,92.10
2017-09-15T22:19:01.768Z,92.30
2017-09-15T22:21:29.283Z,92.30
2017-09-15T22:23:59.804Z,92.40
2017-09-15T22:26:27.311Z,92.50
2017-09-15T22:28:56.583Z,92.60
2017-09-15T22:31:24.087Z,92.50
2017-09-15T22:33:51.667Z,91.90
2017-09-15T22:36:19.224Z,91.20
2017-09-15T22:38:46.766Z,92.10
2017-09-15T22:41:14.283Z,92.80
2017-09-15T22:43:41.813Z,92.30
2017-09-15T22:46:10.021Z,92.50
2017-09-15T22:48:37.529Z,92.60
2017-09-15T22:51:05.035Z,92.50
2017-09-15T22:53:35.827Z,92.70
2017-09-15T22:56:03.360Z,92.60
2017-09-15T22:58:30.863Z,92.50
2017-09-15T23:00:58.419Z,92.30
2017-09-15T23:03:26.523Z,92.10
2017-09-15T23:05:54.059Z,92.00
2017-09-15T23:08:21.699Z,92.30
2017-09-15T23:10:49.403Z,92.70
2017-09-15T23:13:18.915Z,92.80
2017-09-15T23:15:47.220Z,92.30
2017-09-15T23:18:14.752Z,92.00
2017-09-15T23:20:43.335Z,92.70
2017-09-15T23:23:11.624Z,92.80
2017-09-15T23:25:39.130Z,92.80
2017-09-15T23:28:06.687Z,93.10
2017-09-15T23:30:34.215Z,93.30
2017-09-15T23:33:02.358Z,94.00
2017-09-15T23:35:30.199Z,94.30
2017-09-15T23:37:57.747Z,94.30
2017-09-15T23:40:25.650Z,94.50
2017-09-15T23:42:53.457Z,94.50
2017-09-15T23:45:21.741Z,94.20
2017-09-15T23:47:49.242Z,94.40
2017-09-15T23:50:17.984Z,94.20
2017-09-15T23:52:46.950Z,94.40
2017-09-15T23:55:14.447Z,94.40
2017-09-15T23:57:42.154Z,94.60
